Terminal Aerodrome Forecast
Issued by NWS

Home | Current Version | Previous Version | Text Only | Print | Product List | Glossary On
Versions: 1 2 3 4 5 6 7 8 9 10 11 12 13 14 15 16 17 18 19 20
777
FTUS43 KPAH 201120
TAFCGI
TAF
KCGI 201120Z 2012/2112 19013G23KT P6SM BKN070
     FM201500 19018G30KT P6SM SCT025 BKN040
     FM210300 19013G23KT P6SM -SHRA OVC035
     FM210600 15015KT 5SM SHRA BR OVC020
     FM210800 34013KT 3SM +SHRA BR OVC015=

USA.gov is the U.S. government's official web portal to all federal, state and local government web resources and services.